Time;durP1;ratioP1;P1;durP2;ratioP2;P2;SDS_P1;SDS_P2;PMS_P1;PMS_P2;Temp;Humidity;BMP_temperature;BMP_pressure;BME280_temperature;BME280_humidity;BME280_pressure;Samples;Min_cycle;Max_cycle;Signal;HPM_P1;HPM_P2
2022/07/08 00:02:02;;;;;;;6.75;1.10;;;18.40;78.50;;;;;;5013767;28;20045;-87
2022/07/08 00:04:28;;;;;;;7.50;1.10;;;18.40;78.30;;;;;;5030415;28;20533;-87
2022/07/08 00:06:54;;;;;;;5.00;1.23;;;18.30;78.30;;;;;;5013570;28;20026;-87
2022/07/08 00:09:20;;;;;;;5.00;0.95;;;18.30;78.60;;;;;;5013201;28;20037;-87
2022/07/08 00:11:46;;;;;;;3.05;1.00;;;18.30;78.90;;;;;;5013838;28;20080;-87
2022/07/08 00:14:11;;;;;;;7.45;1.35;;;18.20;78.90;;;;;;5013705;28;20030;-88
2022/07/08 00:16:43;;;;;;;3.13;1.25;;;18.20;79.10;;;;;;5013244;28;20065;-86
2022/07/08 00:19:14;;;;;;;5.20;1.52;;;18.20;79.20;;;;;;5012936;28;20032;-88
2022/07/08 00:21:40;;;;;;;3.58;1.23;;;18.10;79.30;;;;;;5014648;28;20033;-87
2022/07/08 00:24:06;;;;;;;5.80;1.30;;;18.00;79.40;;;;;;5013138;28;20466;-89
2022/07/08 00:26:32;;;;;;;4.70;1.50;;;18.00;79.70;;;;;;5013511;28;20036;-88
2022/07/08 00:28:57;;;;;;;3.97;1.63;;;18.00;79.80;;;;;;5013506;28;20030;-87
2022/07/08 00:31:23;;;;;;;6.95;1.42;;;17.90;79.80;;;;;;5013153;28;20391;-87
2022/07/08 00:33:48;;;;;;;7.38;1.30;;;17.90;79.90;;;;;;5013436;28;20471;-87
2022/07/08 00:36:14;;;;;;;4.13;1.55;;;17.90;79.80;;;;;;5014067;28;20057;-88
2022/07/08 00:38:40;;;;;;;7.78;1.67;;;17.80;79.80;;;;;;5014151;28;20501;-87
2022/07/08 00:41:06;;;;;;;6.18;1.00;;;17.80;80.00;;;;;;5018829;28;20030;-88
2022/07/08 00:43:57;;;;;;;3.63;1.48;;;17.80;80.10;;;;;;5025358;28;20041;-87
2022/07/08 00:46:23;;;;;;;;;;;17.70;80.20;;;;;;5014809;28;20065;-87
2022/07/08 00:48:49;;;;;;;5.57;1.48;;;17.70;80.50;;;;;;5012664;28;19967;-87
2022/07/08 00:51:17;;;;;;;4.80;1.73;;;17.70;80.60;;;;;;5019057;28;20053;-87
2022/07/08 00:53:48;;;;;;;3.92;1.38;;;17.60;80.70;;;;;;5023400;28;20044;-87
2022/07/08 00:56:15;;;;;;;6.93;1.60;;;17.60;80.90;;;;;;5013040;28;20026;-87
2022/07/08 00:58:41;;;;;;;5.72;1.60;;;17.50;81.00;;;;;;5028860;28;20490;-87
2022/07/08 01:01:07;;;;;;;8.07;1.48;;;17.50;81.20;;;;;;5017106;28;20108;-88
2022/07/08 01:03:33;;;;;;;4.72;1.60;;;17.50;81.70;;;;;;5023361;28;20554;-87
2022/07/08 01:05:58;;;;;;;5.60;1.25;;;17.40;81.20;;;;;;5026022;28;20061;-87
2022/07/08 01:08:25;;;;;;;4.95;1.30;;;17.40;81.40;;;;;;5016096;28;20110;-87
2022/07/08 01:10:51;;;;;;;4.90;1.23;;;17.40;81.70;;;;;;5032115;28;20025;-87
2022/07/08 01:13:18;;;;;;;6.25;1.48;;;17.30;81.80;;;;;;5025259;28;20468;-87
2022/07/08 01:15:45;;;;;;;6.97;1.30;;;17.30;82.00;;;;;;5023021;28;20025;-87
2022/07/08 01:18:27;;;;;;;3.90;1.05;;;17.20;82.20;;;;;;5018944;28;20030;-87
2022/07/08 01:20:53;;;;;;;5.60;1.48;;;17.20;82.40;;;;;;5031946;28;20032;-87
2022/07/08 01:23:19;;;;;;;5.25;1.13;;;17.20;82.60;;;;;;5025832;28;20032;-87
2022/07/08 01:25:46;;;;;;;12.20;1.77;;;17.20;82.40;;;;;;5026007;28;20037;-89
2022/07/08 01:28:12;;;;;;;5.22;1.10;;;17.20;83.00;;;;;;5022479;28;20478;-88
2022/07/08 01:30:38;;;;;;;5.90;1.20;;;17.20;82.70;;;;;;5032463;28;20030;-87
2022/07/08 01:33:04;;;;;;;6.15;1.38;;;17.10;82.50;;;;;;5020800;28;20025;-88
2022/07/08 01:35:30;;;;;;;5.38;1.40;;;17.10;83.00;;;;;;5027349;28;20056;-87
2022/07/08 01:37:56;;;;;;;5.60;1.30;;;17.10;83.30;;;;;;5027880;28;20124;-87
2022/07/08 01:40:21;;;;;;;6.63;1.30;;;17.00;83.40;;;;;;5019508;28;20103;-88
2022/07/08 01:42:47;;;;;;;6.50;1.33;;;17.00;83.50;;;;;;5032984;28;20021;-88
2022/07/08 01:45:13;;;;;;;5.55;1.35;;;17.00;83.90;;;;;;5024281;28;20022;-87
2022/07/08 01:47:38;;;;;;;5.85;1.30;;;16.90;84.00;;;;;;5016578;28;20050;-87
2022/07/08 01:50:05;;;;;;;6.30;1.52;;;16.80;84.10;;;;;;5015546;28;20136;-87
2022/07/08 01:52:31;;;;;;;6.03;1.38;;;16.80;84.70;;;;;;5031867;28;20029;-87
2022/07/08 01:54:56;;;;;;;6.53;1.42;;;16.70;85.20;;;;;;5019619;28;20021;-87
2022/07/08 01:57:22;;;;;;;4.88;1.33;;;16.60;85.00;;;;;;5027443;28;20017;-88
2022/07/08 01:59:50;;;;;;;4.35;1.50;;;16.60;85.20;;;;;;5027105;28;20497;-87
2022/07/08 02:02:18;;;;;;;2.42;1.20;;;16.50;85.20;;;;;;5020164;28;20029;-87
2022/07/08 02:04:43;;;;;;;5.35;1.67;;;16.60;85.60;;;;;;5031677;28;20029;-87
2022/07/08 02:07:09;;;;;;;6.05;1.52;;;16.50;85.50;;;;;;5014902;28;20080;-88
2022/07/08 02:09:37;;;;;;;7.05;1.15;;;16.40;86.10;;;;;;5024524;28;20037;-87
2022/07/08 02:12:19;;;;;;;4.03;1.25;;;16.30;86.00;;;;;;5022265;28;20056;-87
2022/07/08 02:14:46;;;;;;;4.13;1.27;;;16.40;86.00;;;;;;5032330;28;20029;-87
2022/07/08 02:17:14;;;;;;;7.88;1.55;;;16.30;86.10;;;;;;5021612;28;20113;-87
2022/07/08 02:19:40;;;;;;;3.60;1.38;;;16.30;86.10;;;;;;5035329;28;20056;-87
2022/07/08 02:22:07;;;;;;;4.03;1.25;;;16.20;86.20;;;;;;5022830;28;20037;-88
2022/07/08 02:24:32;;;;;;;4.43;1.40;;;16.20;86.50;;;;;;5032851;28;20030;-87
2022/07/08 02:26:58;;;;;;;4.65;1.30;;;16.20;86.40;;;;;;5020541;28;20024;-87
2022/07/08 02:29:23;;;;;;;5.82;1.38;;;16.20;86.50;;;;;;5027871;28;20026;-88
2022/07/08 02:31:49;;;;;;;7.22;1.52;;;16.20;86.80;;;;;;5026677;28;20059;-87
2022/07/08 02:34:15;;;;;;;4.45;1.27;;;16.10;86.80;;;;;;5020620;28;20387;-87
2022/07/08 02:36:41;;;;;;;6.45;1.67;;;16.20;87.00;;;;;;5033028;28;20479;-87
2022/07/08 02:39:06;;;;;;;4.75;1.55;;;16.00;86.90;;;;;;5029131;28;20029;-87
2022/07/08 02:41:32;;;;;;;4.20;1.50;;;16.00;87.20;;;;;;5024547;28;20037;-87
2022/07/08 02:43:57;;;;;;;5.75;1.50;;;16.00;87.30;;;;;;5022345;28;20449;-87
2022/07/08 02:46:23;;;;;;;4.63;1.27;;;15.90;87.80;;;;;;5029830;28;20048;-87
2022/07/08 02:48:49;;;;;;;6.32;1.60;;;15.80;88.60;;;;;;5018005;28;20041;-87
2022/07/08 02:51:14;;;;;;;10.65;1.70;;;15.80;89.20;;;;;;5034854;28;20454;-87
2022/07/08 02:53:40;;;;;;;2.95;1.30;;;15.70;89.00;;;;;;5024259;28;20037;-87
2022/07/08 02:56:06;;;;;;;6.25;1.60;;;15.60;89.50;;;;;;5027900;28;20395;-88
2022/07/08 02:58:32;;;;;;;2.35;1.30;;;15.60;89.80;;;;;;5017748;28;20030;-87
2022/07/08 03:00:57;;;;;;;7.70;1.90;;;15.50;90.10;;;;;;5030487;28;20029;-87
2022/07/08 03:03:23;;;;;;;3.65;1.40;;;15.40;90.10;;;;;;5013927;28;20037;-87
2022/07/08 03:05:49;;;;;;;5.45;1.40;;;15.40;90.30;;;;;;5026445;28;20030;-87
2022/07/08 03:08:14;;;;;;;3.28;1.65;;;15.30;90.50;;;;;;5019409;28;20022;-86
2022/07/08 03:10:40;;;;;;;3.72;1.73;;;15.20;90.80;;;;;;5030799;28;20029;-87
2022/07/08 03:13:05;;;;;;;6.70;1.67;;;15.20;90.90;;;;;;5019819;28;20025;-89
2022/07/08 03:15:31;;;;;;;4.07;1.55;;;15.10;91.00;;;;;;5025229;28;20479;-86
2022/07/08 03:17:57;;;;;;;5.47;1.85;;;15.00;91.30;;;;;;5027382;28;20028;-87
2022/07/08 03:20:23;;;;;;;3.55;1.60;;;15.00;91.60;;;;;;5018096;28;20065;-87
2022/07/08 03:22:48;;;;;;;3.88;1.50;;;15.00;91.60;;;;;;5016854;28;20037;-87
2022/07/08 03:25:14;;;;;;;6.40;1.75;;;15.00;91.70;;;;;;5026921;28;20076;-87
2022/07/08 03:27:40;;;;;;;5.78;1.73;;;15.00;91.90;;;;;;5024825;28;20053;-87
2022/07/08 03:30:06;;;;;;;3.92;1.85;;;14.90;91.90;;;;;;5019981;28;20040;-90
2022/07/08 03:32:32;;;;;;;3.97;1.33;;;15.00;92.20;;;;;;5030195;28;20082;-87
2022/07/08 03:34:58;;;;;;;4.55;1.90;;;15.00;92.20;;;;;;5019011;28;20112;-87
2022/07/08 03:37:25;;;;;;;5.22;2.10;;;15.00;92.30;;;;;;5026371;28;20018;-87
2022/07/08 03:39:53;;;;;;;5.45;1.98;;;14.90;92.40;;;;;;5026456;28;20026;-86
2022/07/08 03:42:19;;;;;;;5.15;1.73;;;14.90;92.70;;;;;;5019374;28;20383;-87
2022/07/08 03:44:45;;;;;;;5.53;1.83;;;15.00;92.60;;;;;;5023104;28;20026;-86
2022/07/08 03:47:11;;;;;;;4.03;2.20;;;14.90;92.60;;;;;;5026323;28;20077;-87
2022/07/08 03:49:37;;;;;;;7.30;2.03;;;14.80;93.00;;;;;;5023081;28;20104;-87
2022/07/08 03:52:03;;;;;;;5.63;1.92;;;14.80;93.40;;;;;;5034273;28;20025;-86
2022/07/08 03:54:29;;;;;;;5.03;2.28;;;14.80;93.30;;;;;;5016549;28;20117;-87
2022/07/08 03:56:54;;;;;;;4.75;1.80;;;14.70;93.50;;;;;;5029779;28;20030;-87
2022/07/08 03:59:20;;;;;;;6.30;1.77;;;14.60;93.70;;;;;;5020136;28;20078;-87
2022/07/08 04:01:45;;;;;;;6.53;1.95;;;14.70;93.50;;;;;;5033699;28;20414;-86
2022/07/08 04:04:11;;;;;;;5.60;1.70;;;14.60;93.50;;;;;;5032845;28;20179;-87
2022/07/08 04:06:37;;;;;;;3.45;2.13;;;14.70;93.50;;;;;;5018075;28;20030;-87
2022/07/08 04:09:03;;;;;;;5.35;2.00;;;14.70;93.60;;;;;;5028481;28;20026;-87
2022/07/08 04:11:29;;;;;;;8.73;2.15;;;14.60;93.50;;;;;;5022576;28;20071;-87
2022/07/08 04:13:56;;;;;;;4.45;2.05;;;14.70;93.40;;;;;;5022436;28;20112;-85
2022/07/08 04:16:22;;;;;;;4.93;1.92;;;14.70;93.30;;;;;;5014295;28;20022;-86
2022/07/08 04:18:48;;;;;;;5.30;1.90;;;14.70;93.80;;;;;;5014254;28;20029;-86
2022/07/08 04:21:14;;;;;;;7.07;1.75;;;14.70;93.50;;;;;;5020564;28;20071;-86
2022/07/08 04:23:40;;;;;;;6.28;2.08;;;14.70;93.70;;;;;;5024727;28;20065;-86
2022/07/08 04:26:06;;;;;;;5.10;1.90;;;14.70;93.70;;;;;;5026280;28;20022;-89
2022/07/08 04:28:32;;;;;;;6.68;2.03;;;14.70;93.80;;;;;;5016641;28;20034;-87
2022/07/08 04:30:58;;;;;;;5.72;2.08;;;14.70;93.70;;;;;;5030260;28;20022;-86
2022/07/08 04:33:24;;;;;;;7.20;2.35;;;14.80;93.70;;;;;;5020248;28;20025;-87
2022/07/08 04:35:49;;;;;;;4.97;2.00;;;14.80;93.70;;;;;;5021957;28;20085;-87
2022/07/08 04:38:15;;;;;;;6.00;2.20;;;14.80;93.70;;;;;;5027430;28;20030;-87
2022/07/08 04:40:41;;;;;;;6.03;1.95;;;14.80;93.90;;;;;;5016390;28;20037;-87
2022/07/08 04:43:06;;;;;;;9.27;2.15;;;14.90;94.20;;;;;;5027304;28;20537;-88
2022/07/08 04:45:32;;;;;;;7.00;1.98;;;14.90;94.20;;;;;;5022415;28;20045;-87
2022/07/08 04:47:58;;;;;;;6.13;2.05;;;14.90;94.00;;;;;;5013116;28;20132;-87
2022/07/08 04:50:23;;;;;;;3.55;1.58;;;14.90;94.10;;;;;;5013850;28;20065;-87
2022/07/08 04:52:49;;;;;;;4.82;1.65;;;14.90;94.00;;;;;;5013112;28;20022;-86
2022/07/08 04:55:27;;;;;;;6.20;2.20;;;15.00;93.60;;;;;;5018685;28;20128;-86
2022/07/08 04:58:02;;;;;;;6.03;1.63;;;15.00;93.30;;;;;;5022334;28;20025;-86
2022/07/08 05:00:29;;;;;;;5.63;1.67;;;15.10;93.10;;;;;;5032104;28;20037;-86
2022/07/08 05:02:55;;;;;;;4.65;1.48;;;15.10;93.50;;;;;;5032706;28;20030;-86
2022/07/08 05:05:21;;;;;;;5.80;1.25;;;15.20;93.50;;;;;;5023371;28;20093;-87
2022/07/08 05:07:50;;;;;;;5.78;1.20;;;15.20;93.00;;;;;;5026741;28;20025;-86
2022/07/08 05:10:17;;;;;;;4.63;1.35;;;15.30;92.60;;;;;;5030859;28;20030;-87
2022/07/08 05:12:44;;;;;;;4.35;1.50;;;15.40;92.60;;;;;;5019753;28;20022;-86
2022/07/08 05:15:11;;;;;;;8.30;1.52;;;15.30;93.00;;;;;;5030138;28;20022;-87
2022/07/08 05:17:37;;;;;;;5.85;1.48;;;15.40;93.00;;;;;;5025486;28;20026;-86
2022/07/08 05:20:02;;;;;;;4.80;1.73;;;15.40;92.90;;;;;;5023116;28;20029;-86
2022/07/08 05:22:28;;;;;;;6.25;1.35;;;15.50;92.50;;;;;;5033040;28;20459;-88
2022/07/08 05:24:53;;;;;;;4.20;1.20;;;15.50;92.40;;;;;;5019439;28;20022;-87
2022/07/08 05:27:20;;;;;;;6.20;1.25;;;15.60;92.30;;;;;;5028594;28;20030;-87
2022/07/08 05:29:46;;;;;;;3.05;1.08;;;15.70;92.50;;;;;;5027618;28;20057;-87
2022/07/08 05:32:12;;;;;;;5.05;1.30;;;15.70;92.30;;;;;;5021358;28;20447;-87
2022/07/08 05:34:39;;;;;;;6.93;1.48;;;15.70;92.70;;;;;;5032475;28;20029;-86
2022/07/08 05:37:06;;;;;;;6.22;1.55;;;15.80;92.50;;;;;;5020832;28;20029;-90
2022/07/08 05:39:32;;;;;;;9.00;1.77;;;15.80;92.30;;;;;;5026864;28;20415;-86
2022/07/08 05:41:57;;;;;;;4.60;1.40;;;15.90;92.50;;;;;;5028052;28;20083;-86
2022/07/08 05:44:23;;;;;;;5.32;1.75;;;15.90;92.50;;;;;;5029237;28;20021;-87
2022/07/08 05:46:48;;;;;;;4.32;1.23;;;15.90;92.30;;;;;;5016271;28;20068;-86
2022/07/08 05:49:14;;;;;;;5.10;1.40;;;16.00;92.60;;;;;;5021782;28;20066;-86
2022/07/08 05:51:39;;;;;;;6.55;1.52;;;16.00;92.60;;;;;;5026984;28;20030;-86
2022/07/08 05:54:05;;;;;;;9.02;1.15;;;16.00;92.60;;;;;;5029080;28;20459;-89
2022/07/08 05:56:31;;;;;;;9.70;1.40;;;16.00;92.90;;;;;;5035741;28;20033;-87
2022/07/08 05:58:57;;;;;;;8.82;1.63;;;16.00;92.60;;;;;;5019439;28;20462;-87
2022/07/08 06:01:22;;;;;;;7.25;1.67;;;16.10;92.40;;;;;;5027408;28;20110;-87
2022/07/08 06:03:48;;;;;;;6.15;1.60;;;16.10;92.00;;;;;;5015649;28;20394;-87
2022/07/08 06:06:15;;;;;;;4.45;1.17;;;16.20;92.10;;;;;;5029419;28;20029;-87
2022/07/08 06:08:41;;;;;;;5.88;1.27;;;16.20;91.80;;;;;;5019009;28;20030;-86
2022/07/08 06:11:07;;;;;;;6.40;1.30;;;16.20;91.70;;;;;;5029085;28;20056;-87
2022/07/08 06:13:33;;;;;;;5.70;1.80;;;16.30;91.70;;;;;;5024313;28;20013;-86
2022/07/08 06:15:59;;;;;;;5.10;1.30;;;16.30;91.70;;;;;;5022720;28;20395;-86
2022/07/08 06:18:24;;;;;;;4.88;1.63;;;16.30;91.70;;;;;;5016015;28;20101;-87
2022/07/08 06:20:50;;;;;;;3.90;1.30;;;16.30;92.00;;;;;;5031536;28;20021;-87
2022/07/08 06:23:16;;;;;;;5.68;1.33;;;16.40;92.40;;;;;;5021365;28;20226;-87
2022/07/08 06:25:41;;;;;;;5.15;1.30;;;16.40;92.30;;;;;;5024870;28;20030;-87
2022/07/08 06:28:07;;;;;;;3.55;1.15;;;16.50;92.20;;;;;;5029305;28;20052;-88
2022/07/08 06:30:33;;;;;;;7.35;1.30;;;16.50;91.60;;;;;;5018573;28;20490;-88
2022/07/08 06:32:59;;;;;;;5.90;1.42;;;16.50;91.90;;;;;;5030939;28;20064;-87
2022/07/08 06:35:26;;;;;;;5.07;1.40;;;16.60;91.60;;;;;;5022519;28;20275;-87
2022/07/08 06:37:53;;;;;;;6.55;1.65;;;16.60;91.20;;;;;;5024598;28;20022;-87
2022/07/08 06:40:21;;;;;;;3.55;0.98;;;16.70;91.00;;;;;;5029229;28;20497;-87
2022/07/08 06:42:47;;;;;;;7.75;1.40;;;16.70;90.40;;;;;;5018204;28;20026;-87
2022/07/08 06:45:13;;;;;;;7.03;1.52;;;16.70;90.50;;;;;;5023913;28;20083;-88
2022/07/08 06:47:39;;;;;;;9.13;1.88;;;16.70;90.30;;;;;;5025483;28;20058;-87
2022/07/08 06:50:06;;;;;;;3.30;1.30;;;16.80;89.70;;;;;;5027290;28;20470;-87
2022/07/08 06:52:32;;;;;;;4.03;1.00;;;16.80;89.30;;;;;;5033484;28;20059;-88
2022/07/08 06:54:59;;;;;;;7.32;1.02;;;16.80;89.30;;;;;;5018520;28;20021;-87
2022/07/08 06:57:25;;;;;;;5.43;1.10;;;16.80;89.10;;;;;;5025670;28;20018;-88
2022/07/08 06:59:51;;;;;;;4.25;0.98;;;16.80;88.70;;;;;;5025298;28;20052;-87
2022/07/08 07:02:17;;;;;;;3.00;1.00;;;16.90;88.40;;;;;;5033241;28;20127;-87
2022/07/08 07:04:43;;;;;;;2.90;0.80;;;16.90;87.80;;;;;;5027797;28;20036;-87
2022/07/08 07:07:09;;;;;;;4.68;1.20;;;16.90;87.30;;;;;;5013853;28;20030;-88
2022/07/08 07:09:35;;;;;;;6.50;1.77;;;16.90;86.40;;;;;;5023893;28;20017;-87
2022/07/08 07:12:02;;;;;;;4.47;0.98;;;16.90;86.40;;;;;;5021225;28;20474;-87
2022/07/08 07:14:27;;;;;;;4.55;1.10;;;16.90;86.10;;;;;;5030880;28;20033;-87
2022/07/08 07:16:53;;;;;;;3.03;0.85;;;17.00;86.70;;;;;;5030865;28;20037;-88
2022/07/08 07:19:19;;;;;;;4.53;0.90;;;17.00;86.50;;;;;;5019181;28;20057;-87
2022/07/08 07:21:45;;;;;;;3.17;1.05;;;17.00;85.40;;;;;;5017588;28;20036;-87
2022/07/08 07:24:10;;;;;;;5.93;1.10;;;17.00;85.60;;;;;;5026017;28;20025;-87
2022/07/08 07:26:39;;;;;;;6.57;1.25;;;17.00;85.60;;;;;;5022620;28;20080;-87
2022/07/08 07:29:04;;;;;;;5.55;1.13;;;17.10;84.60;;;;;;5017809;28;20022;-87
2022/07/08 07:31:30;;;;;;;4.38;0.98;;;17.10;85.30;;;;;;5025268;28;20029;-87
2022/07/08 07:33:56;;;;;;;7.45;1.35;;;17.10;84.80;;;;;;5021882;28;20038;-87
2022/07/08 07:36:22;;;;;;;6.82;1.00;;;17.10;84.80;;;;;;5013697;28;20173;-86
2022/07/08 07:38:47;;;;;;;2.92;0.80;;;17.10;85.20;;;;;;5022017;28;20032;-86
2022/07/08 07:41:13;;;;;;;4.65;0.80;;;17.10;83.90;;;;;;5013330;28;20033;-87
2022/07/08 07:43:39;;;;;;;7.68;1.13;;;17.00;82.90;;;;;;5014970;28;20057;-88
2022/07/08 07:46:07;;;;;;;3.30;1.00;;;17.00;82.70;;;;;;5013711;28;20561;-88
2022/07/08 07:48:33;;;;;;;3.25;0.63;;;17.00;83.00;;;;;;5014319;28;20085;-89
2022/07/08 07:50:59;;;;;;;5.38;0.98;;;17.10;83.10;;;;;;5017300;28;20032;-87
2022/07/08 07:53:26;;;;;;;4.22;0.90;;;17.00;82.50;;;;;;5024901;28;20014;-87
2022/07/08 07:55:52;;;;;;;1.45;0.65;;;17.10;82.30;;;;;;5024417;28;20036;-88
2022/07/08 07:58:17;;;;;;;5.93;0.98;;;17.10;82.60;;;;;;5032228;28;20025;-87
2022/07/08 08:00:43;;;;;;;3.70;0.80;;;17.10;82.70;;;;;;5030420;28;20028;-88
2022/07/08 08:03:09;;;;;;;4.47;0.80;;;17.10;82.50;;;;;;5018194;28;20032;-87
2022/07/08 08:05:35;;;;;;;6.55;1.25;;;17.10;82.80;;;;;;5032254;28;20397;-88
2022/07/08 08:08:01;;;;;;;2.10;0.75;;;17.10;82.10;;;;;;5020940;28;20032;-86
2022/07/08 08:10:26;;;;;;;3.67;0.70;;;17.10;82.00;;;;;;5014146;28;20105;-87
2022/07/08 08:12:52;;;;;;;3.17;0.80;;;17.10;81.40;;;;;;5031724;28;20112;-88
2022/07/08 08:15:18;;;;;;;5.00;0.90;;;17.10;80.80;;;;;;5021913;28;20053;-88
2022/07/08 08:17:43;;;;;;;3.33;0.98;;;17.10;81.50;;;;;;5013429;28;20018;-87
2022/07/08 08:20:11;;;;;;;4.53;0.77;;;17.10;81.80;;;;;;5021071;28;20025;-89
2022/07/08 08:22:38;;;;;;;3.35;0.63;;;17.20;81.50;;;;;;5016892;28;20037;-87
2022/07/08 08:25:04;;;;;;;2.55;0.80;;;17.30;80.40;;;;;;5014504;28;20438;-88
2022/07/08 08:27:29;;;;;;;3.17;0.82;;;17.40;79.80;;;;;;5012766;28;20112;-88
2022/07/08 08:29:55;;;;;;;4.53;0.90;;;17.60;79.30;;;;;;5025283;28;20115;-87
2022/07/08 08:32:21;;;;;;;4.30;0.77;;;17.60;79.80;;;;;;5031126;28;20026;-87
2022/07/08 08:34:47;;;;;;;3.25;0.70;;;17.60;79.20;;;;;;5030631;28;20022;-88
2022/07/08 08:37:13;;;;;;;5.32;0.82;;;17.60;79.40;;;;;;5032413;28;20017;-87
2022/07/08 08:39:39;;;;;;;5.18;1.10;;;17.60;78.30;;;;;;5031332;28;20025;-88
2022/07/08 08:42:07;;;;;;;4.07;0.65;;;17.60;77.90;;;;;;5031767;28;20080;-87
2022/07/08 08:44:33;;;;;;;3.53;0.68;;;17.70;78.50;;;;;;5031298;28;20021;-88
2022/07/08 08:47:02;;;;;;;4.07;0.93;;;17.70;78.40;;;;;;5029449;28;20052;-88
2022/07/08 08:49:33;;;;;;;3.42;0.80;;;17.70;77.50;;;;;;5012526;28;20018;-88
2022/07/08 08:52:01;;;;;;;3.13;0.57;;;17.70;77.00;;;;;;5012945;28;20029;-88
2022/07/08 08:54:32;;;;;;;2.38;0.65;;;17.80;76.60;;;;;;5028205;28;20061;-88
2022/07/08 08:56:59;;;;;;;2.22;0.60;;;17.80;75.80;;;;;;5013885;28;20022;-88
2022/07/08 08:59:25;;;;;;;1.65;0.50;;;17.80;76.30;;;;;;5012564;28;20030;-88
2022/07/08 09:01:52;;;;;;;2.97;0.68;;;17.80;77.90;;;;;;5012722;28;20129;-88
2022/07/08 09:04:19;;;;;;;2.28;1.10;;;17.90;78.10;;;;;;5013786;28;20084;-88
2022/07/08 09:06:44;;;;;;;3.15;0.80;;;18.00;78.30;;;;;;5013355;28;20018;-89
2022/07/08 09:09:10;;;;;;;1.70;0.63;;;18.10;78.50;;;;;;5012274;28;20466;-88
2022/07/08 09:11:38;;;;;;;3.78;1.00;;;18.00;77.60;;;;;;5012780;28;20057;-88
2022/07/08 09:14:17;;;;;;;3.38;0.60;;;18.00;77.10;;;;;;5013453;28;20025;-89
2022/07/08 09:17:12;;;;;;;3.05;0.80;;;18.00;77.00;;;;;;5014108;28;20026;-88
2022/07/08 09:19:42;;;;;;;5.15;0.63;;;18.00;76.80;;;;;;5022542;28;20151;-88
2022/07/08 09:22:08;;;;;;;5.25;1.58;;;18.00;77.20;;;;;;5018420;28;20370;-88
2022/07/08 09:24:39;;;;;;;3.30;0.80;;;18.00;77.90;;;;;;5013264;28;20026;-88
2022/07/08 09:27:06;;;;;;;2.47;0.80;;;18.00;77.10;;;;;;5030991;28;20357;-88
2022/07/08 09:29:32;;;;;;;5.78;0.75;;;18.00;77.30;;;;;;5023674;28;20037;-89
2022/07/08 09:32:18;;;;;;;2.53;0.60;;;18.00;76.90;;;;;;5012346;28;20026;-88
2022/07/08 09:34:44;;;;;;;3.00;0.73;;;18.00;75.60;;;;;;5029328;28;20042;-88
2022/07/08 09:37:18;;;;;;;2.35;0.65;;;18.10;75.80;;;;;;5030359;28;20029;-89
2022/07/08 09:39:45;;;;;;;3.60;0.70;;;18.10;75.40;;;;;;5030731;28;20031;-87
2022/07/08 09:42:13;;;;;;;2.45;0.73;;;18.20;76.20;;;;;;5030481;28;20022;-87
2022/07/08 09:44:40;;;;;;;1.85;0.80;;;18.20;76.70;;;;;;5030659;28;20022;-88
2022/07/08 09:47:14;;;;;;;3.95;0.73;;;18.30;76.60;;;;;;5029592;28;20038;-88
2022/07/08 09:49:42;;;;;;;3.72;0.80;;;18.40;76.10;;;;;;5024936;28;20093;-89
2022/07/08 09:52:19;;;;;;;3.22;0.73;;;18.40;76.00;;;;;;5035922;28;20030;-89
2022/07/08 09:54:45;;;;;;;4.30;0.70;;;18.40;75.80;;;;;;5032164;28;20044;-88
2022/07/08 09:57:14;;;;;;;3.13;0.80;;;18.40;76.50;;;;;;5016181;28;20022;-88
2022/07/08 09:59:40;;;;;;;6.97;0.88;;;18.50;76.70;;;;;;5015065;28;20033;-89
2022/07/08 10:02:06;;;;;;;3.10;0.63;;;18.50;77.00;;;;;;5016476;28;20026;-88
2022/07/08 10:04:32;;;;;;;3.90;1.10;;;18.60;76.50;;;;;;5031449;28;20052;-88
2022/07/08 10:06:58;;;;;;;5.57;1.00;;;18.60;76.60;;;;;;5025520;28;20466;-88
2022/07/08 10:09:25;;;;;;;6.50;0.90;;;18.60;77.20;;;;;;5018764;28;20052;-88
2022/07/08 10:11:52;;;;;;;3.40;0.73;;;18.60;77.70;;;;;;5025383;28;20021;-88
2022/07/08 10:14:19;;;;;;;8.38;2.13;;;18.50;78.20;;;;;;5025793;28;20025;-88
2022/07/08 10:16:47;;;;;;;3.38;1.00;;;18.50;77.30;;;;;;5023595;28;20025;-89
2022/07/08 10:19:28;;;;;;;3.75;0.93;;;18.60;77.40;;;;;;5014650;28;20121;-87
2022/07/08 10:21:57;;;;;;;4.60;0.70;;;18.60;76.20;;;;;;5031576;28;20034;-89
2022/07/08 10:24:27;;;;;;;2.22;0.80;;;18.60;76.40;;;;;;5014402;28;20048;-88
2022/07/08 10:26:58;;;;;;;4.55;0.90;;;18.70;75.30;;;;;;5032508;28;20101;-89
2022/07/08 10:29:28;;;;;;;;;;;18.70;74.80;;;;;;5030923;28;20022;-88
2022/07/08 10:31:54;;;;;;;3.67;1.02;;;18.80;75.00;;;;;;5024973;28;19959;-89
2022/07/08 10:34:22;;;;;;;5.03;0.98;;;18.80;75.50;;;;;;5019543;28;20053;-87
2022/07/08 10:36:53;;;;;;;6.10;1.27;;;18.80;75.40;;;;;;5019953;28;20032;-87
2022/07/08 10:39:37;;;;;;;4.60;1.30;;;18.80;75.60;;;;;;5027102;28;20018;-89
2022/07/08 10:42:07;;;;;;;3.35;0.95;;;18.80;75.50;;;;;;5027497;28;20049;-89
2022/07/08 10:44:42;;;;;;;2.13;0.90;;;18.90;75.90;;;;;;5022522;28;20037;-88
2022/07/08 10:47:23;;;;;;;5.07;1.30;;;18.90;75.90;;;;;;5031343;28;20041;-91
2022/07/08 10:49:50;;;;;;;2.60;0.77;;;19.00;75.20;;;;;;5017830;28;20033;-89
2022/07/08 10:52:17;;;;;;;3.90;0.80;;;19.00;74.60;;;;;;5014312;28;20467;-88
2022/07/08 10:54:44;;;;;;;3.33;0.90;;;19.00;75.00;;;;;;5023444;28;20022;-89
2022/07/08 10:57:35;;;;;;;5.25;1.05;;;19.10;74.90;;;;;;5027087;28;20064;-89
2022/07/08 11:00:03;;;;;;;4.03;0.60;;;19.00;74.80;;;;;;5023250;28;20025;-90
2022/07/08 11:02:29;;;;;;;4.10;1.08;;;19.20;75.20;;;;;;5014116;28;20030;-89
2022/07/08 11:04:57;;;;;;;4.60;0.80;;;19.20;74.40;;;;;;5015649;28;20040;-88
2022/07/08 11:07:29;;;;;;;4.95;0.90;;;19.20;74.10;;;;;;5013951;28;20033;-89
2022/07/08 11:10:09;;;;;;;4.88;1.02;;;19.20;74.00;;;;;;5015593;28;20057;-88
2022/07/08 11:12:44;;;;;;;5.57;0.70;;;19.30;74.60;;;;;;5031564;28;20026;-89
2022/07/08 11:15:17;;;;;;;4.20;1.00;;;19.30;72.90;;;;;;5034283;28;20033;-92
2022/07/08 11:17:46;;;;;;;4.90;0.80;;;19.40;73.10;;;;;;5031957;28;20053;-89
2022/07/08 11:20:18;;;;;;;4.97;0.70;;;19.40;72.70;;;;;;5017678;28;20030;-90
2022/07/08 11:22:45;;;;;;;2.47;0.82;;;19.40;72.60;;;;;;5025230;28;20053;-89
2022/07/08 11:25:16;;;;;;;3.05;0.80;;;19.40;74.00;;;;;;5026344;28;20481;-90
2022/07/08 11:27:42;;;;;;;5.53;0.65;;;19.50;73.20;;;;;;5016714;28;20250;-89
2022/07/08 11:30:10;;;;;;;3.67;0.65;;;19.60;73.00;;;;;;5018246;28;20017;-91
2022/07/08 11:32:36;;;;;;;1.38;0.60;;;19.60;70.10;;;;;;5025516;28;20076;-90
2022/07/08 11:35:02;;;;;;;8.52;0.98;;;19.60;71.10;;;;;;5026294;28;20079;-89
2022/07/08 11:37:32;;;;;;;4.57;0.70;;;19.70;71.10;;;;;;5024681;28;20029;-89
2022/07/08 11:39:58;;;;;;;5.00;0.88;;;19.70;71.00;;;;;;5022868;28;20026;-90
2022/07/08 11:42:24;;;;;;;3.67;0.82;;;19.70;71.70;;;;;;5021100;28;20482;-89
2022/07/08 11:44:54;;;;;;;4.18;0.70;;;19.80;72.70;;;;;;5021904;28;20026;-90
2022/07/08 11:47:21;;;;;;;1.83;0.60;;;19.80;70.50;;;;;;5020299;28;20095;-88
2022/07/08 11:49:48;;;;;;;4.32;0.80;;;19.90;70.20;;;;;;5029001;28;20026;-89
2022/07/08 11:52:17;;;;;;;5.55;1.05;;;19.90;70.10;;;;;;5021376;28;20024;-89
2022/07/08 11:54:47;;;;;;;1.40;0.50;;;20.00;70.10;;;;;;5024649;28;20036;-89
2022/07/08 11:57:14;;;;;;;5.35;0.70;;;20.00;70.40;;;;;;5025395;28;20033;-90
2022/07/08 11:59:39;;;;;;;2.67;0.80;;;20.00;70.30;;;;;;5022050;28;20064;-89
2022/07/08 12:02:06;;;;;;;4.28;0.60;;;20.20;70.70;;;;;;5023841;28;20065;-90
2022/07/08 12:04:32;;;;;;;7.05;1.00;;;20.20;70.80;;;;;;5024493;28;20024;-89
2022/07/08 12:07:00;;;;;;;1.92;0.60;;;20.30;71.20;;;;;;5020521;28;20018;-89
2022/07/08 12:09:27;;;;;;;5.18;0.70;;;20.40;69.80;;;;;;5019962;28;20045;-89
2022/07/08 12:11:55;;;;;;;4.20;0.80;;;20.40;69.30;;;;;;5020893;28;20064;-90
2022/07/08 12:14:23;;;;;;;1.95;0.40;;;20.40;69.40;;;;;;5027913;28;20022;-89
2022/07/08 12:16:58;;;;;;;2.85;0.50;;;20.50;70.10;;;;;;5020543;28;20053;-89
2022/07/08 12:19:37;;;;;;;3.40;0.88;;;20.60;70.00;;;;;;5028277;28;20021;-90
2022/07/08 12:22:08;;;;;;;3.58;0.95;;;20.70;69.00;;;;;;5021968;28;20455;-89
2022/07/08 12:24:38;;;;;;;3.93;0.63;;;20.70;69.70;;;;;;5028847;28;20022;-90
2022/07/08 12:27:17;;;;;;;5.70;0.70;;;20.80;69.70;;;;;;5026334;28;20294;-89
2022/07/08 12:29:48;;;;;;;4.22;0.80;;;20.80;67.10;;;;;;5015798;28;20474;-89
2022/07/08 12:32:14;;;;;;;5.90;0.60;;;20.80;67.20;;;;;;5024269;28;20083;-89
2022/07/08 12:34:51;;;;;;;2.38;0.70;;;20.80;67.50;;;;;;5022210;28;20417;-90
2022/07/08 12:37:21;;;;;;;5.22;1.00;;;20.80;67.40;;;;;;5026429;28;20021;-88
2022/07/08 12:39:47;;;;;;;7.85;1.05;;;20.90;67.60;;;;;;5022045;28;20462;-89
2022/07/08 12:42:13;;;;;;;3.35;0.80;;;21.00;68.80;;;;;;5020205;28;20045;-89
2022/07/08 12:44:48;;;;;;;3.53;0.77;;;21.00;67.20;;;;;;5027316;28;20447;-89
2022/07/08 12:47:14;;;;;;;3.92;0.60;;;21.00;67.80;;;;;;5027226;28;20042;-89
2022/07/08 12:49:47;;;;;;;5.38;0.70;;;21.10;67.20;;;;;;5024402;28;20027;-90